sensor_id;sensor_type;location;lat;lon;timestamp;P1;durP1;ratioP1;P2;durP2;ratioP2
25854;SDS011;13680;49.936;11.344;2023-01-08T00:00:56;16.90;;;9.27;;
25854;SDS011;13680;49.936;11.344;2023-01-08T00:03:22;15.52;;;9.93;;
25854;SDS011;13680;49.936;11.344;2023-01-08T00:05:48;15.68;;;9.88;;
25854;SDS011;13680;49.936;11.344;2023-01-08T00:08:14;13.07;;;8.48;;
25854;SDS011;13680;49.936;11.344;2023-01-08T00:10:39;15.32;;;8.95;;
25854;SDS011;13680;49.936;11.344;2023-01-08T00:13:05;18.65;;;9.32;;
25854;SDS011;13680;49.936;11.344;2023-01-08T00:15:32;14.57;;;8.73;;
25854;SDS011;13680;49.936;11.344;2023-01-08T00:17:58;12.30;;;8.75;;
25854;SDS011;13680;49.936;11.344;2023-01-08T00:20:23;14.73;;;8.05;;
25854;SDS011;13680;49.936;11.344;2023-01-08T00:22:49;16.17;;;8.27;;
25854;SDS011;13680;49.936;11.344;2023-01-08T00:25:16;24.35;;;8.30;;
25854;SDS011;13680;49.936;11.344;2023-01-08T00:27:42;13.05;;;7.85;;
25854;SDS011;13680;49.936;11.344;2023-01-08T00:30:08;14.00;;;7.88;;
25854;SDS011;13680;49.936;11.344;2023-01-08T00:32:33;15.55;;;8.00;;
25854;SDS011;13680;49.936;11.344;2023-01-08T00:34:59;14.38;;;7.70;;
25854;SDS011;13680;49.936;11.344;2023-01-08T00:37:26;13.40;;;7.95;;
25854;SDS011;13680;49.936;11.344;2023-01-08T00:39:51;11.60;;;7.45;;
25854;SDS011;13680;49.936;11.344;2023-01-08T00:42:17;12.93;;;7.50;;
25854;SDS011;13680;49.936;11.344;2023-01-08T00:44:42;12.00;;;7.70;;
25854;SDS011;13680;49.936;11.344;2023-01-08T00:47:07;11.52;;;7.38;;
25854;SDS011;13680;49.936;11.344;2023-01-08T00:49:33;10.98;;;7.65;;
25854;SDS011;13680;49.936;11.344;2023-01-08T00:51:58;11.65;;;7.53;;
25854;SDS011;13680;49.936;11.344;2023-01-08T00:54:24;12.45;;;7.95;;
25854;SDS011;13680;49.936;11.344;2023-01-08T00:56:49;14.65;;;7.60;;
25854;SDS011;13680;49.936;11.344;2023-01-08T00:59:14;11.00;;;7.07;;
25854;SDS011;13680;49.936;11.344;2023-01-08T01:01:39;12.52;;;7.28;;
25854;SDS011;13680;49.936;11.344;2023-01-08T01:04:05;13.48;;;7.78;;
25854;SDS011;13680;49.936;11.344;2023-01-08T01:06:30;13.70;;;7.88;;
25854;SDS011;13680;49.936;11.344;2023-01-08T01:08:55;12.43;;;7.70;;
25854;SDS011;13680;49.936;11.344;2023-01-08T01:11:22;11.25;;;7.07;;
25854;SDS011;13680;49.936;11.344;2023-01-08T01:13:49;9.18;;;6.47;;
25854;SDS011;13680;49.936;11.344;2023-01-08T01:16:15;11.23;;;7.38;;
25854;SDS011;13680;49.936;11.344;2023-01-08T01:18:41;12.35;;;7.50;;
25854;SDS011;13680;49.936;11.344;2023-01-08T01:23:53;12.02;;;6.65;;
25854;SDS011;13680;49.936;11.344;2023-01-08T01:26:20;10.85;;;7.50;;
25854;SDS011;13680;49.936;11.344;2023-01-08T01:28:47;11.75;;;7.03;;
25854;SDS011;13680;49.936;11.344;2023-01-08T01:31:15;12.77;;;7.28;;
25854;SDS011;13680;49.936;11.344;2023-01-08T01:33:40;13.05;;;8.07;;
25854;SDS011;13680;49.936;11.344;2023-01-08T01:36:06;12.93;;;8.43;;
25854;SDS011;13680;49.936;11.344;2023-01-08T01:38:31;12.55;;;7.55;;
25854;SDS011;13680;49.936;11.344;2023-01-08T01:40:57;10.60;;;7.20;;
25854;SDS011;13680;49.936;11.344;2023-01-08T01:43:34;11.13;;;6.45;;
25854;SDS011;13680;49.936;11.344;2023-01-08T01:46:05;14.40;;;7.28;;
25854;SDS011;13680;49.936;11.344;2023-01-08T01:48:39;10.38;;;6.75;;
25854;SDS011;13680;49.936;11.344;2023-01-08T01:51:04;10.95;;;7.25;;
25854;SDS011;13680;49.936;11.344;2023-01-08T01:53:31;11.27;;;7.30;;
25854;SDS011;13680;49.936;11.344;2023-01-08T01:55:58;11.52;;;7.32;;
25854;SDS011;13680;49.936;11.344;2023-01-08T01:58:26;13.35;;;6.85;;
25854;SDS011;13680;49.936;11.344;2023-01-08T02:00:53;11.15;;;6.88;;
25854;SDS011;13680;49.936;11.344;2023-01-08T02:03:24;12.32;;;6.82;;
25854;SDS011;13680;49.936;11.344;2023-01-08T02:11:43;10.60;;;7.05;;
25854;SDS011;13680;49.936;11.344;2023-01-08T02:14:36;12.95;;;7.60;;
25854;SDS011;13680;49.936;11.344;2023-01-08T02:17:08;12.30;;;7.53;;
25854;SDS011;13680;49.936;11.344;2023-01-08T02:22:11;12.18;;;7.55;;
25854;SDS011;13680;49.936;11.344;2023-01-08T02:27:15;13.25;;;7.68;;
25854;SDS011;13680;49.936;11.344;2023-01-08T02:29:42;12.85;;;7.15;;
25854;SDS011;13680;49.936;11.344;2023-01-08T02:32:08;9.88;;;6.55;;
25854;SDS011;13680;49.936;11.344;2023-01-08T02:34:34;14.55;;;8.30;;
25854;SDS011;13680;49.936;11.344;2023-01-08T02:36:59;16.85;;;7.95;;
25854;SDS011;13680;49.936;11.344;2023-01-08T02:45:09;16.27;;;7.53;;
25854;SDS011;13680;49.936;11.344;2023-01-08T02:48:12;12.18;;;8.15;;
25854;SDS011;13680;49.936;11.344;2023-01-08T02:53:22;11.10;;;7.63;;
25854;SDS011;13680;49.936;11.344;2023-01-08T02:55:52;12.23;;;7.43;;
25854;SDS011;13680;49.936;11.344;2023-01-08T02:58:22;12.00;;;7.43;;
25854;SDS011;13680;49.936;11.344;2023-01-08T03:00:51;13.85;;;7.22;;
25854;SDS011;13680;49.936;11.344;2023-01-08T03:03:20;13.40;;;7.93;;
25854;SDS011;13680;49.936;11.344;2023-01-08T03:05:49;11.07;;;7.47;;
25854;SDS011;13680;49.936;11.344;2023-01-08T03:08:18;12.05;;;7.78;;
25854;SDS011;13680;49.936;11.344;2023-01-08T03:10:46;15.52;;;7.97;;
25854;SDS011;13680;49.936;11.344;2023-01-08T03:13:23;17.35;;;8.77;;
25854;SDS011;13680;49.936;11.344;2023-01-08T03:15:55;21.00;;;8.48;;
25854;SDS011;13680;49.936;11.344;2023-01-08T03:18:27;14.52;;;7.97;;
25854;SDS011;13680;49.936;11.344;2023-01-08T03:20:58;14.55;;;8.20;;
25854;SDS011;13680;49.936;11.344;2023-01-08T03:23:26;12.35;;;8.05;;
25854;SDS011;13680;49.936;11.344;2023-01-08T03:25:55;11.77;;;7.22;;
25854;SDS011;13680;49.936;11.344;2023-01-08T03:28:25;13.85;;;8.30;;
25854;SDS011;13680;49.936;11.344;2023-01-08T03:30:56;14.73;;;7.95;;
25854;SDS011;13680;49.936;11.344;2023-01-08T03:33:23;13.07;;;8.77;;
25854;SDS011;13680;49.936;11.344;2023-01-08T03:35:50;13.13;;;7.65;;
25854;SDS011;13680;49.936;11.344;2023-01-08T03:38:38;16.67;;;10.13;;
25854;SDS011;13680;49.936;11.344;2023-01-08T03:41:11;14.45;;;8.63;;
25854;SDS011;13680;49.936;11.344;2023-01-08T03:43:40;16.58;;;8.57;;
25854;SDS011;13680;49.936;11.344;2023-01-08T03:46:10;14.90;;;10.05;;
25854;SDS011;13680;49.936;11.344;2023-01-08T03:48:40;17.02;;;10.63;;
25854;SDS011;13680;49.936;11.344;2023-01-08T03:51:10;14.40;;;9.45;;
25854;SDS011;13680;49.936;11.344;2023-01-08T03:53:35;13.68;;;8.50;;
25854;SDS011;13680;49.936;11.344;2023-01-08T03:56:01;15.43;;;9.52;;
25854;SDS011;13680;49.936;11.344;2023-01-08T03:58:26;14.40;;;9.60;;
25854;SDS011;13680;49.936;11.344;2023-01-08T04:00:52;15.65;;;9.32;;
25854;SDS011;13680;49.936;11.344;2023-01-08T04:03:17;15.05;;;9.63;;
25854;SDS011;13680;49.936;11.344;2023-01-08T04:05:43;15.02;;;9.10;;
25854;SDS011;13680;49.936;11.344;2023-01-08T04:08:08;12.43;;;8.63;;
25854;SDS011;13680;49.936;11.344;2023-01-08T04:10:34;15.35;;;9.05;;
25854;SDS011;13680;49.936;11.344;2023-01-08T04:12:59;12.40;;;9.07;;
25854;SDS011;13680;49.936;11.344;2023-01-08T04:15:24;15.35;;;9.65;;
25854;SDS011;13680;49.936;11.344;2023-01-08T04:17:50;15.82;;;9.20;;
25854;SDS011;13680;49.936;11.344;2023-01-08T04:20:15;12.35;;;8.68;;
25854;SDS011;13680;49.936;11.344;2023-01-08T04:22:41;15.85;;;9.80;;
25854;SDS011;13680;49.936;11.344;2023-01-08T04:25:06;15.13;;;10.25;;
25854;SDS011;13680;49.936;11.344;2023-01-08T04:27:32;12.48;;;8.73;;
25854;SDS011;13680;49.936;11.344;2023-01-08T04:29:57;14.98;;;9.82;;
25854;SDS011;13680;49.936;11.344;2023-01-08T04:32:22;15.40;;;9.80;;
25854;SDS011;13680;49.936;11.344;2023-01-08T04:34:48;18.23;;;10.45;;
25854;SDS011;13680;49.936;11.344;2023-01-08T04:37:13;16.95;;;10.75;;
25854;SDS011;13680;49.936;11.344;2023-01-08T04:39:38;15.18;;;10.20;;
25854;SDS011;13680;49.936;11.344;2023-01-08T04:42:04;16.27;;;10.63;;
25854;SDS011;13680;49.936;11.344;2023-01-08T04:44:29;15.35;;;10.13;;
25854;SDS011;13680;49.936;11.344;2023-01-08T04:46:55;13.63;;;8.93;;
25854;SDS011;13680;49.936;11.344;2023-01-08T04:49:20;14.50;;;10.10;;
25854;SDS011;13680;49.936;11.344;2023-01-08T04:51:45;16.05;;;9.90;;
25854;SDS011;13680;49.936;11.344;2023-01-08T04:54:11;14.43;;;9.60;;
25854;SDS011;13680;49.936;11.344;2023-01-08T04:56:36;14.13;;;9.32;;
25854;SDS011;13680;49.936;11.344;2023-01-08T04:59:01;14.73;;;9.70;;
25854;SDS011;13680;49.936;11.344;2023-01-08T05:01:27;14.07;;;9.48;;
25854;SDS011;13680;49.936;11.344;2023-01-08T05:03:53;13.95;;;9.63;;
25854;SDS011;13680;49.936;11.344;2023-01-08T05:06:20;15.60;;;9.88;;
25854;SDS011;13680;49.936;11.344;2023-01-08T05:08:45;15.68;;;9.50;;
25854;SDS011;13680;49.936;11.344;2023-01-08T05:11:11;14.95;;;8.93;;
25854;SDS011;13680;49.936;11.344;2023-01-08T05:13:36;13.93;;;9.45;;
25854;SDS011;13680;49.936;11.344;2023-01-08T05:16:01;15.80;;;9.45;;
25854;SDS011;13680;49.936;11.344;2023-01-08T05:18:27;13.95;;;9.52;;
25854;SDS011;13680;49.936;11.344;2023-01-08T05:20:53;13.70;;;8.98;;
25854;SDS011;13680;49.936;11.344;2023-01-08T05:23:19;14.07;;;8.75;;
25854;SDS011;13680;49.936;11.344;2023-01-08T05:25:44;12.35;;;8.65;;
25854;SDS011;13680;49.936;11.344;2023-01-08T05:28:10;17.45;;;9.35;;
25854;SDS011;13680;49.936;11.344;2023-01-08T05:30:35;17.00;;;10.00;;
25854;SDS011;13680;49.936;11.344;2023-01-08T05:33:01;16.38;;;9.70;;
25854;SDS011;13680;49.936;11.344;2023-01-08T05:35:26;15.73;;;10.27;;
25854;SDS011;13680;49.936;11.344;2023-01-08T05:37:51;15.18;;;10.00;;
25854;SDS011;13680;49.936;11.344;2023-01-08T05:40:17;16.95;;;10.13;;
25854;SDS011;13680;49.936;11.344;2023-01-08T05:42:42;15.50;;;10.15;;
25854;SDS011;13680;49.936;11.344;2023-01-08T05:45:07;18.15;;;12.05;;
25854;SDS011;13680;49.936;11.344;2023-01-08T05:47:33;17.08;;;11.38;;
25854;SDS011;13680;49.936;11.344;2023-01-08T05:49:59;19.27;;;11.85;;
25854;SDS011;13680;49.936;11.344;2023-01-08T05:52:25;19.08;;;12.43;;
25854;SDS011;13680;49.936;11.344;2023-01-08T05:54:51;17.98;;;11.77;;
25854;SDS011;13680;49.936;11.344;2023-01-08T05:57:16;16.75;;;10.63;;
25854;SDS011;13680;49.936;11.344;2023-01-08T05:59:41;18.25;;;10.75;;
25854;SDS011;13680;49.936;11.344;2023-01-08T06:02:07;16.65;;;10.90;;
25854;SDS011;13680;49.936;11.344;2023-01-08T06:04:33;17.15;;;10.77;;
25854;SDS011;13680;49.936;11.344;2023-01-08T06:06:58;17.88;;;10.82;;
25854;SDS011;13680;49.936;11.344;2023-01-08T06:09:23;18.02;;;11.43;;
25854;SDS011;13680;49.936;11.344;2023-01-08T06:11:49;15.27;;;11.02;;
25854;SDS011;13680;49.936;11.344;2023-01-08T06:14:15;24.42;;;13.00;;
25854;SDS011;13680;49.936;11.344;2023-01-08T06:16:44;16.70;;;11.68;;
25854;SDS011;13680;49.936;11.344;2023-01-08T06:19:09;19.80;;;11.35;;
25854;SDS011;13680;49.936;11.344;2023-01-08T06:21:35;19.00;;;11.65;;
25854;SDS011;13680;49.936;11.344;2023-01-08T06:24:01;22.23;;;12.05;;
25854;SDS011;13680;49.936;11.344;2023-01-08T06:26:26;16.02;;;11.15;;
25854;SDS011;13680;49.936;11.344;2023-01-08T06:28:51;17.77;;;11.95;;
25854;SDS011;13680;49.936;11.344;2023-01-08T06:31:16;18.00;;;11.88;;
25854;SDS011;13680;49.936;11.344;2023-01-08T06:33:42;18.92;;;12.43;;
25854;SDS011;13680;49.936;11.344;2023-01-08T06:36:07;20.67;;;12.13;;
25854;SDS011;13680;49.936;11.344;2023-01-08T06:38:33;17.15;;;11.80;;
25854;SDS011;13680;49.936;11.344;2023-01-08T06:41:04;19.58;;;12.55;;
25854;SDS011;13680;49.936;11.344;2023-01-08T06:43:31;16.48;;;11.05;;
25854;SDS011;13680;49.936;11.344;2023-01-08T06:45:57;21.92;;;12.85;;
25854;SDS011;13680;49.936;11.344;2023-01-08T06:48:23;18.13;;;11.38;;
25854;SDS011;13680;49.936;11.344;2023-01-08T06:50:49;16.35;;;11.10;;
25854;SDS011;13680;49.936;11.344;2023-01-08T06:53:15;18.17;;;12.13;;
25854;SDS011;13680;49.936;11.344;2023-01-08T06:55:40;17.50;;;12.10;;
25854;SDS011;13680;49.936;11.344;2023-01-08T06:58:05;17.75;;;12.10;;
25854;SDS011;13680;49.936;11.344;2023-01-08T07:00:31;19.23;;;12.68;;
25854;SDS011;13680;49.936;11.344;2023-01-08T07:02:56;22.02;;;14.18;;
25854;SDS011;13680;49.936;11.344;2023-01-08T07:05:22;18.88;;;11.73;;
25854;SDS011;13680;49.936;11.344;2023-01-08T07:07:47;18.42;;;11.82;;
25854;SDS011;13680;49.936;11.344;2023-01-08T07:10:13;16.30;;;11.10;;
25854;SDS011;13680;49.936;11.344;2023-01-08T07:12:38;21.10;;;13.05;;
25854;SDS011;13680;49.936;11.344;2023-01-08T07:15:04;19.23;;;12.70;;
25854;SDS011;13680;49.936;11.344;2023-01-08T07:17:31;18.67;;;12.25;;
25854;SDS011;13680;49.936;11.344;2023-01-08T07:19:56;19.10;;;12.05;;
25854;SDS011;13680;49.936;11.344;2023-01-08T07:22:22;17.48;;;12.00;;
25854;SDS011;13680;49.936;11.344;2023-01-08T07:24:48;17.40;;;11.27;;
25854;SDS011;13680;49.936;11.344;2023-01-08T07:27:13;18.10;;;11.70;;
25854;SDS011;13680;49.936;11.344;2023-01-08T07:29:38;17.67;;;11.73;;
25854;SDS011;13680;49.936;11.344;2023-01-08T07:32:04;16.15;;;11.40;;
25854;SDS011;13680;49.936;11.344;2023-01-08T07:34:29;18.27;;;11.95;;
25854;SDS011;13680;49.936;11.344;2023-01-08T07:36:54;23.65;;;11.68;;
25854;SDS011;13680;49.936;11.344;2023-01-08T07:39:20;15.18;;;10.93;;
25854;SDS011;13680;49.936;11.344;2023-01-08T07:41:45;16.55;;;10.27;;
25854;SDS011;13680;49.936;11.344;2023-01-08T07:44:11;15.18;;;10.25;;
25854;SDS011;13680;49.936;11.344;2023-01-08T07:46:36;22.08;;;14.20;;
25854;SDS011;13680;49.936;11.344;2023-01-08T07:49:02;29.02;;;16.90;;
25854;SDS011;13680;49.936;11.344;2023-01-08T07:51:27;30.65;;;17.30;;
25854;SDS011;13680;49.936;11.344;2023-01-08T07:53:54;33.22;;;20.15;;
25854;SDS011;13680;49.936;11.344;2023-01-08T07:56:20;23.02;;;14.07;;
25854;SDS011;13680;49.936;11.344;2023-01-08T07:58:46;18.90;;;12.00;;
25854;SDS011;13680;49.936;11.344;2023-01-08T08:01:12;17.17;;;10.60;;
25854;SDS011;13680;49.936;11.344;2023-01-08T08:03:38;18.77;;;12.00;;
25854;SDS011;13680;49.936;11.344;2023-01-08T08:06:04;17.83;;;10.90;;
25854;SDS011;13680;49.936;11.344;2023-01-08T08:08:29;16.02;;;10.57;;
25854;SDS011;13680;49.936;11.344;2023-01-08T08:10:54;15.93;;;10.50;;
25854;SDS011;13680;49.936;11.344;2023-01-08T08:13:20;17.35;;;11.30;;
25854;SDS011;13680;49.936;11.344;2023-01-08T08:15:45;15.68;;;9.98;;
25854;SDS011;13680;49.936;11.344;2023-01-08T08:18:10;13.57;;;9.82;;
25854;SDS011;13680;49.936;11.344;2023-01-08T08:20:36;13.82;;;9.70;;
25854;SDS011;13680;49.936;11.344;2023-01-08T08:23:03;14.90;;;10.02;;
25854;SDS011;13680;49.936;11.344;2023-01-08T08:25:30;20.10;;;13.52;;
25854;SDS011;13680;49.936;11.344;2023-01-08T08:27:56;28.83;;;18.27;;
25854;SDS011;13680;49.936;11.344;2023-01-08T08:30:22;17.35;;;11.23;;
25854;SDS011;13680;49.936;11.344;2023-01-08T08:32:48;20.33;;;12.00;;
25854;SDS011;13680;49.936;11.344;2023-01-08T08:35:13;19.63;;;12.50;;
25854;SDS011;13680;49.936;11.344;2023-01-08T08:37:39;17.27;;;11.15;;
25854;SDS011;13680;49.936;11.344;2023-01-08T08:40:04;17.45;;;12.55;;
25854;SDS011;13680;49.936;11.344;2023-01-08T08:42:30;17.83;;;10.38;;
25854;SDS011;13680;49.936;11.344;2023-01-08T08:44:55;16.02;;;11.50;;
25854;SDS011;13680;49.936;11.344;2023-01-08T08:47:21;17.13;;;10.80;;
25854;SDS011;13680;49.936;11.344;2023-01-08T08:49:46;17.42;;;11.57;;
25854;SDS011;13680;49.936;11.344;2023-01-08T08:52:11;16.95;;;11.95;;
25854;SDS011;13680;49.936;11.344;2023-01-08T08:54:37;15.95;;;10.43;;
25854;SDS011;13680;49.936;11.344;2023-01-08T08:57:05;22.65;;;14.63;;
25854;SDS011;13680;49.936;11.344;2023-01-08T08:59:31;61.42;;;33.38;;
25854;SDS011;13680;49.936;11.344;2023-01-08T09:01:57;30.70;;;17.98;;
25854;SDS011;13680;49.936;11.344;2023-01-08T09:04:22;23.02;;;15.07;;
25854;SDS011;13680;49.936;11.344;2023-01-08T09:06:48;18.17;;;12.35;;
25854;SDS011;13680;49.936;11.344;2023-01-08T09:09:13;18.52;;;12.18;;
25854;SDS011;13680;49.936;11.344;2023-01-08T09:11:39;22.20;;;13.88;;
25854;SDS011;13680;49.936;11.344;2023-01-08T09:14:05;23.27;;;15.63;;
25854;SDS011;13680;49.936;11.344;2023-01-08T09:16:30;27.98;;;18.25;;
25854;SDS011;13680;49.936;11.344;2023-01-08T09:18:56;17.33;;;12.23;;
25854;SDS011;13680;49.936;11.344;2023-01-08T09:21:22;18.42;;;11.40;;
25854;SDS011;13680;49.936;11.344;2023-01-08T09:23:47;21.92;;;16.52;;
25854;SDS011;13680;49.936;11.344;2023-01-08T09:26:13;18.40;;;13.80;;
25854;SDS011;13680;49.936;11.344;2023-01-08T09:28:38;19.52;;;14.02;;
25854;SDS011;13680;49.936;11.344;2023-01-08T09:31:04;14.45;;;10.15;;
25854;SDS011;13680;49.936;11.344;2023-01-08T09:33:30;18.60;;;10.80;;
25854;SDS011;13680;49.936;11.344;2023-01-08T09:35:56;14.05;;;10.00;;
25854;SDS011;13680;49.936;11.344;2023-01-08T09:38:21;16.13;;;10.07;;
25854;SDS011;13680;49.936;11.344;2023-01-08T09:40:51;15.35;;;10.10;;
25854;SDS011;13680;49.936;11.344;2023-01-08T09:43:24;19.00;;;11.68;;
25854;SDS011;13680;49.936;11.344;2023-01-08T09:45:56;11.88;;;9.15;;
25854;SDS011;13680;49.936;11.344;2023-01-08T09:48:26;19.30;;;14.13;;
25854;SDS011;13680;49.936;11.344;2023-01-08T09:50:54;16.05;;;9.05;;
25854;SDS011;13680;49.936;11.344;2023-01-08T09:53:20;18.42;;;11.57;;
25854;SDS011;13680;49.936;11.344;2023-01-08T09:55:48;19.67;;;12.45;;
25854;SDS011;13680;49.936;11.344;2023-01-08T10:01:00;12.45;;;9.18;;
25854;SDS011;13680;49.936;11.344;2023-01-08T10:03:29;16.45;;;10.95;;
25854;SDS011;13680;49.936;11.344;2023-01-08T10:06:07;14.98;;;9.85;;
25854;SDS011;13680;49.936;11.344;2023-01-08T10:08:33;12.77;;;8.70;;
25854;SDS011;13680;49.936;11.344;2023-01-08T10:10:59;12.27;;;8.88;;
25854;SDS011;13680;49.936;11.344;2023-01-08T10:13:24;11.88;;;8.55;;
25854;SDS011;13680;49.936;11.344;2023-01-08T10:15:49;16.58;;;8.93;;
25854;SDS011;13680;49.936;11.344;2023-01-08T10:18:16;13.93;;;8.13;;
25854;SDS011;13680;49.936;11.344;2023-01-08T10:20:47;12.43;;;8.82;;
25854;SDS011;13680;49.936;11.344;2023-01-08T10:23:16;13.60;;;9.75;;
25854;SDS011;13680;49.936;11.344;2023-01-08T10:28:28;11.27;;;7.38;;
25854;SDS011;13680;49.936;11.344;2023-01-08T10:30:59;9.32;;;7.35;;
25854;SDS011;13680;49.936;11.344;2023-01-08T10:33:30;19.08;;;11.73;;
25854;SDS011;13680;49.936;11.344;2023-01-08T10:36:07;17.90;;;11.30;;
25854;SDS011;13680;49.936;11.344;2023-01-08T10:38:38;23.40;;;14.02;;
25854;SDS011;13680;49.936;11.344;2023-01-08T10:41:08;23.73;;;15.38;;
25854;SDS011;13680;49.936;11.344;2023-01-08T10:43:41;20.52;;;13.82;;
25854;SDS011;13680;49.936;11.344;2023-01-08T10:48:52;14.77;;;9.25;;
25854;SDS011;13680;49.936;11.344;2023-01-08T10:51:22;22.67;;;13.63;;
25854;SDS011;13680;49.936;11.344;2023-01-08T10:53:49;16.13;;;9.63;;
25854;SDS011;13680;49.936;11.344;2023-01-08T10:56:25;9.43;;;5.90;;
25854;SDS011;13680;49.936;11.344;2023-01-08T10:58:53;9.63;;;5.30;;
25854;SDS011;13680;49.936;11.344;2023-01-08T11:01:21;12.65;;;7.07;;
25854;SDS011;13680;49.936;11.344;2023-01-08T11:03:54;11.38;;;7.30;;
25854;SDS011;13680;49.936;11.344;2023-01-08T11:06:22;8.57;;;4.60;;
25854;SDS011;13680;49.936;11.344;2023-01-08T11:08:55;9.70;;;6.07;;
25854;SDS011;13680;49.936;11.344;2023-01-08T11:11:30;9.93;;;5.55;;
25854;SDS011;13680;49.936;11.344;2023-01-08T11:14:00;8.52;;;5.85;;
25854;SDS011;13680;49.936;11.344;2023-01-08T11:16:45;9.15;;;5.03;;
25854;SDS011;13680;49.936;11.344;2023-01-08T11:19:15;5.65;;;4.30;;
25854;SDS011;13680;49.936;11.344;2023-01-08T11:21:53;6.00;;;3.75;;
25854;SDS011;13680;49.936;11.344;2023-01-08T11:24:20;7.03;;;4.75;;
25854;SDS011;13680;49.936;11.344;2023-01-08T11:26:50;5.32;;;4.00;;
25854;SDS011;13680;49.936;11.344;2023-01-08T11:29:21;5.63;;;4.25;;
25854;SDS011;13680;49.936;11.344;2023-01-08T11:37:21;8.70;;;4.07;;
25854;SDS011;13680;49.936;11.344;2023-01-08T11:39:49;5.13;;;3.72;;
25854;SDS011;13680;49.936;11.344;2023-01-08T11:47:51;6.57;;;3.67;;
25854;SDS011;13680;49.936;11.344;2023-01-08T11:50:28;4.80;;;3.28;;
25854;SDS011;13680;49.936;11.344;2023-01-08T11:53:08;6.45;;;3.20;;
25854;SDS011;13680;49.936;11.344;2023-01-08T11:55:48;4.38;;;3.10;;
25854;SDS011;13680;49.936;11.344;2023-01-08T12:01:42;5.07;;;3.72;;
25854;SDS011;13680;49.936;11.344;2023-01-08T12:10:12;5.18;;;4.10;;
25854;SDS011;13680;49.936;11.344;2023-01-08T12:26:45;7.85;;;3.85;;
25854;SDS011;13680;49.936;11.344;2023-01-08T12:29:29;4.45;;;3.40;;
25854;SDS011;13680;49.936;11.344;2023-01-08T12:35:09;7.25;;;6.18;;
25854;SDS011;13680;49.936;11.344;2023-01-08T12:37:41;6.97;;;5.07;;
25854;SDS011;13680;49.936;11.344;2023-01-08T12:40:15;8.35;;;4.47;;
25854;SDS011;13680;49.936;11.344;2023-01-08T12:42:44;6.63;;;4.20;;
25854;SDS011;13680;49.936;11.344;2023-01-08T12:45:29;6.72;;;4.32;;
25854;SDS011;13680;49.936;11.344;2023-01-08T12:48:03;8.63;;;3.90;;
25854;SDS011;13680;49.936;11.344;2023-01-08T12:50:38;6.80;;;4.85;;
25854;SDS011;13680;49.936;11.344;2023-01-08T12:55:45;9.02;;;5.80;;
25854;SDS011;13680;49.936;11.344;2023-01-08T12:58:19;40.63;;;20.95;;
25854;SDS011;13680;49.936;11.344;2023-01-08T13:00:59;13.90;;;7.72;;
25854;SDS011;13680;49.936;11.344;2023-01-08T13:03:37;23.35;;;16.10;;
25854;SDS011;13680;49.936;11.344;2023-01-08T13:06:13;6.65;;;4.85;;
25854;SDS011;13680;49.936;11.344;2023-01-08T13:08:43;21.20;;;12.82;;
25854;SDS011;13680;49.936;11.344;2023-01-08T13:11:12;10.00;;;6.38;;
25854;SDS011;13680;49.936;11.344;2023-01-08T13:16:38;7.43;;;4.90;;
25854;SDS011;13680;49.936;11.344;2023-01-08T13:19:06;5.22;;;3.55;;
25854;SDS011;13680;49.936;11.344;2023-01-08T13:21:57;7.47;;;4.75;;
25854;SDS011;13680;49.936;11.344;2023-01-08T13:24:34;7.10;;;4.50;;
25854;SDS011;13680;49.936;11.344;2023-01-08T13:29:40;7.13;;;4.15;;
25854;SDS011;13680;49.936;11.344;2023-01-08T13:32:28;4.30;;;3.50;;
25854;SDS011;13680;49.936;11.344;2023-01-08T13:37:40;4.55;;;3.35;;
25854;SDS011;13680;49.936;11.344;2023-01-08T13:43:01;9.38;;;6.25;;
25854;SDS011;13680;49.936;11.344;2023-01-08T13:45:29;10.00;;;5.32;;
25854;SDS011;13680;49.936;11.344;2023-01-08T13:47:55;6.60;;;3.88;;
25854;SDS011;13680;49.936;11.344;2023-01-08T13:50:22;5.45;;;3.50;;
25854;SDS011;13680;49.936;11.344;2023-01-08T13:52:58;6.00;;;3.75;;
25854;SDS011;13680;49.936;11.344;2023-01-08T13:55:29;9.00;;;4.70;;
25854;SDS011;13680;49.936;11.344;2023-01-08T13:57:58;4.30;;;3.25;;
25854;SDS011;13680;49.936;11.344;2023-01-08T14:03:01;9.20;;;4.40;;
25854;SDS011;13680;49.936;11.344;2023-01-08T14:05:30;7.35;;;4.53;;
25854;SDS011;13680;49.936;11.344;2023-01-08T14:08:00;9.27;;;4.88;;
25854;SDS011;13680;49.936;11.344;2023-01-08T14:10:27;7.13;;;4.78;;
25854;SDS011;13680;49.936;11.344;2023-01-08T14:12:54;8.75;;;5.53;;
25854;SDS011;13680;49.936;11.344;2023-01-08T14:15:31;22.15;;;6.50;;
25854;SDS011;13680;49.936;11.344;2023-01-08T14:17:59;9.00;;;5.82;;
25854;SDS011;13680;49.936;11.344;2023-01-08T14:20:30;8.85;;;5.15;;
25854;SDS011;13680;49.936;11.344;2023-01-08T14:23:01;9.45;;;6.07;;
25854;SDS011;13680;49.936;11.344;2023-01-08T14:25:27;11.25;;;6.47;;
25854;SDS011;13680;49.936;11.344;2023-01-08T14:27:55;8.73;;;5.35;;
25854;SDS011;13680;49.936;11.344;2023-01-08T14:30:25;7.40;;;5.03;;
25854;SDS011;13680;49.936;11.344;2023-01-08T14:32:52;7.25;;;4.72;;
25854;SDS011;13680;49.936;11.344;2023-01-08T14:35:20;9.10;;;4.95;;
25854;SDS011;13680;49.936;11.344;2023-01-08T14:37:52;6.70;;;4.70;;
25854;SDS011;13680;49.936;11.344;2023-01-08T14:40:23;6.75;;;4.63;;
25854;SDS011;13680;49.936;11.344;2023-01-08T14:42:53;5.85;;;4.45;;
25854;SDS011;13680;49.936;11.344;2023-01-08T14:48:00;6.05;;;4.30;;
25854;SDS011;13680;49.936;11.344;2023-01-08T14:50:34;5.32;;;3.70;;
25854;SDS011;13680;49.936;11.344;2023-01-08T14:55:54;6.05;;;3.72;;
25854;SDS011;13680;49.936;11.344;2023-01-08T14:58:22;5.72;;;3.75;;
25854;SDS011;13680;49.936;11.344;2023-01-08T15:01:00;6.20;;;4.10;;
25854;SDS011;13680;49.936;11.344;2023-01-08T15:03:31;5.90;;;3.97;;
25854;SDS011;13680;49.936;11.344;2023-01-08T15:06:04;7.80;;;4.13;;
25854;SDS011;13680;49.936;11.344;2023-01-08T15:08:38;5.68;;;4.22;;
25854;SDS011;13680;49.936;11.344;2023-01-08T15:11:05;5.65;;;4.40;;
25854;SDS011;13680;49.936;11.344;2023-01-08T15:13:44;8.25;;;4.80;;
25854;SDS011;13680;49.936;11.344;2023-01-08T15:16:24;8.38;;;5.80;;
25854;SDS011;13680;49.936;11.344;2023-01-08T15:19:03;7.53;;;4.80;;
25854;SDS011;13680;49.936;11.344;2023-01-08T15:21:31;9.80;;;5.38;;
25854;SDS011;13680;49.936;11.344;2023-01-08T15:23:58;8.88;;;5.47;;
25854;SDS011;13680;49.936;11.344;2023-01-08T15:26:25;11.32;;;5.38;;
25854;SDS011;13680;49.936;11.344;2023-01-08T15:28:54;9.15;;;4.75;;
25854;SDS011;13680;49.936;11.344;2023-01-08T15:31:26;6.70;;;4.60;;
25854;SDS011;13680;49.936;11.344;2023-01-08T15:33:57;6.90;;;4.68;;
25854;SDS011;13680;49.936;11.344;2023-01-08T15:36:24;6.47;;;4.18;;
25854;SDS011;13680;49.936;11.344;2023-01-08T15:38:49;5.88;;;4.00;;
25854;SDS011;13680;49.936;11.344;2023-01-08T15:41:16;6.10;;;4.28;;
25854;SDS011;13680;49.936;11.344;2023-01-08T15:44:05;8.38;;;4.25;;
25854;SDS011;13680;49.936;11.344;2023-01-08T15:46:32;13.30;;;7.47;;
25854;SDS011;13680;49.936;11.344;2023-01-08T15:48:57;12.88;;;9.73;;
25854;SDS011;13680;49.936;11.344;2023-01-08T15:51:23;8.32;;;5.70;;
25854;SDS011;13680;49.936;11.344;2023-01-08T15:53:49;8.48;;;5.30;;
25854;SDS011;13680;49.936;11.344;2023-01-08T15:56:14;7.53;;;5.88;;